Time;durP1;ratioP1;P1;durP2;ratioP2;P2;SDS_P1;SDS_P2;PMS_P1;PMS_P2;Temp;Humidity;BMP_temperature;BMP_pressure;BME280_temperature;BME280_humidity;BME280_pressure;Samples;Min_cycle;Max_cycle;Signal;HPM_P1;HPM_P2
2023/02/01 00:02:03;;;;;;;23.23;5.50;;;6.20;99.90;;;;;;7367909;19;20022;-71
2023/02/01 00:04:30;;;;;;;19.70;4.28;;;6.20;99.90;;;;;;7370823;19;20490;-68
2023/02/01 00:06:57;;;;;;;18.63;4.63;;;6.20;99.90;;;;;;7366704;19;20046;-69
2023/02/01 00:09:23;;;;;;;22.92;5.00;;;6.10;99.90;;;;;;7367991;19;20014;-69
2023/02/01 00:11:50;;;;;;;23.33;5.10;;;6.20;99.90;;;;;;7366341;19;20578;-69
2023/02/01 00:14:17;;;;;;;26.73;5.68;;;6.20;99.90;;;;;;7372382;19;20011;-68
2023/02/01 00:16:43;;;;;;;26.42;6.32;;;6.20;99.90;;;;;;7369697;19;20039;-63
2023/02/01 00:19:14;;;;;;;28.55;5.32;;;6.20;99.90;;;;;;7372897;19;20022;-68
2023/02/01 00:21:41;;;;;;;25.35;4.97;;;6.20;99.90;;;;;;7371388;19;20403;-69
2023/02/01 00:24:10;;;;;;;22.10;4.68;;;6.20;99.90;;;;;;7370256;19;20420;-63
2023/02/01 00:26:39;;;;;;;23.40;5.13;;;6.20;99.90;;;;;;7371544;19;20025;-69
2023/02/01 00:29:32;;;;;;;26.25;5.30;;;6.20;99.90;;;;;;7370046;19;20018;-63
2023/02/01 00:31:58;;;;;;;22.98;4.90;;;6.20;99.90;;;;;;7372074;19;20010;-63
2023/02/01 00:34:24;;;;;;;24.80;5.63;;;6.10;99.90;;;;;;7372983;19;20085;-63
2023/02/01 00:36:53;;;;;;;21.95;4.47;;;6.10;99.90;;;;;;7369568;19;20640;-69
2023/02/01 00:39:19;;;;;;;22.35;4.60;;;6.10;99.90;;;;;;7373280;19;20360;-69
2023/02/01 00:41:45;;;;;;;20.33;4.15;;;6.20;99.90;;;;;;7372277;19;20485;-69
2023/02/01 00:44:12;;;;;;;20.55;4.50;;;6.20;99.90;;;;;;7374986;19;20018;-62
2023/02/01 00:46:38;;;;;;;19.13;4.80;;;6.20;99.90;;;;;;7369453;19;20029;-70
2023/02/01 00:49:07;;;;;;;20.83;4.32;;;6.30;99.90;;;;;;7371986;19;20031;-69
2023/02/01 00:51:33;;;;;;;25.17;5.50;;;6.30;99.90;;;;;;7372189;19;20366;-69
2023/02/01 00:53:59;;;;;;;20.92;5.53;;;6.40;99.90;;;;;;7367676;19;20669;-63
2023/02/01 00:56:27;;;;;;;24.95;4.90;;;6.30;99.90;;;;;;7370424;19;20435;-63
2023/02/01 00:58:54;;;;;;;18.95;4.50;;;6.30;99.90;;;;;;7372552;19;20018;-63
2023/02/01 01:01:25;;;;;;;22.40;5.82;;;6.30;99.90;;;;;;7372498;19;20044;-69
2023/02/01 01:03:56;;;;;;;23.35;5.45;;;6.20;99.90;;;;;;7373309;19;20042;-63
2023/02/01 01:06:31;;;;;;;20.65;4.28;;;6.20;99.90;;;;;;7371618;19;20022;-63
2023/02/01 01:09:04;;;;;;;22.58;5.32;;;6.30;99.90;;;;;;7372346;19;20537;-69
2023/02/01 01:11:34;;;;;;;19.73;4.25;;;6.30;99.90;;;;;;7373396;19;20025;-68
2023/02/01 01:14:12;;;;;;;26.25;6.05;;;6.30;99.90;;;;;;7371701;19;20018;-63
2023/02/01 01:16:39;;;;;;;17.45;4.57;;;6.30;99.90;;;;;;7366469;19;20011;-69
2023/02/01 01:19:05;;;;;;;17.60;5.40;;;6.30;99.90;;;;;;7375353;19;20025;-70
2023/02/01 01:21:32;;;;;;;17.92;4.90;;;6.40;99.90;;;;;;7373780;19;20101;-68
2023/02/01 01:23:58;;;;;;;21.25;6.30;;;6.40;99.90;;;;;;7376144;19;20014;-68
2023/02/01 01:26:26;;;;;;;25.23;5.20;;;6.30;99.90;;;;;;7375927;19;20111;-62
2023/02/01 01:28:58;;;;;;;26.17;5.55;;;6.30;99.90;;;;;;7373272;19;20041;-62
2023/02/01 01:31:26;;;;;;;23.83;4.78;;;6.40;99.90;;;;;;7373616;19;20029;-62
2023/02/01 01:33:54;;;;;;;25.27;5.53;;;6.40;99.90;;;;;;7370512;19;20022;-61
2023/02/01 01:36:22;;;;;;;27.13;6.00;;;6.40;99.90;;;;;;7369808;19;20018;-62
2023/02/01 01:38:49;;;;;;;26.92;5.85;;;6.40;99.90;;;;;;7372546;19;20318;-62
2023/02/01 01:41:23;;;;;;;23.58;4.88;;;6.40;99.90;;;;;;7371345;19;20086;-62
2023/02/01 01:44:02;;;;;;;18.42;4.45;;;6.40;99.90;;;;;;7374427;19;20007;-62
2023/02/01 01:46:40;;;;;;;27.58;5.68;;;6.40;99.90;;;;;;7373168;19;20022;-62
2023/02/01 01:49:17;;;;;;;26.80;4.78;;;6.40;99.90;;;;;;7374197;19;20078;-63
2023/02/01 01:51:54;;;;;;;24.02;6.07;;;6.50;99.90;;;;;;7373546;19;20034;-62
2023/02/01 01:54:26;;;;;;;18.45;4.88;;;6.40;99.90;;;;;;7371960;19;20507;-62
2023/02/01 01:57:01;;;;;;;22.83;4.75;;;6.50;99.90;;;;;;7370937;19;20044;-62
2023/02/01 01:59:29;;;;;;;20.02;4.68;;;6.50;99.90;;;;;;7372638;19;20030;-62
2023/02/01 02:01:55;;;;;;;21.90;5.15;;;6.50;99.90;;;;;;7372269;19;20434;-63
2023/02/01 02:04:23;;;;;;;25.73;6.28;;;6.40;99.90;;;;;;7364246;19;20015;-68
2023/02/01 02:07:05;;;;;;;25.80;6.03;;;6.40;99.90;;;;;;7377976;19;20381;-67
2023/02/01 02:09:32;;;;;;;25.90;5.28;;;6.40;99.90;;;;;;7375934;19;20488;-67
2023/02/01 02:11:59;;;;;;;22.98;5.32;;;6.20;99.90;;;;;;7374780;19;20034;-67
2023/02/01 02:14:27;;;;;;;24.90;5.15;;;6.10;99.90;;;;;;7375845;19;20019;-63
2023/02/01 02:17:13;;;;;;;24.25;5.03;;;6.10;99.90;;;;;;7379431;19;20362;-63
2023/02/01 02:20:09;;;;;;;25.48;4.60;;;6.10;99.90;;;;;;7378016;19;20481;-63
2023/02/01 02:22:58;;;;;;;24.88;5.07;;;6.00;99.90;;;;;;7376198;19;20023;-63
2023/02/01 02:25:28;;;;;;;27.15;5.72;;;6.10;99.90;;;;;;7379762;19;20019;-63
2023/02/01 02:28:10;;;;;;;27.75;5.78;;;6.00;99.90;;;;;;7377605;19;20061;-66
2023/02/01 02:31:03;;;;;;;26.52;5.57;;;5.90;99.90;;;;;;7373891;19;20022;-66
2023/02/01 02:34:01;;;;;;;25.42;5.68;;;5.80;99.90;;;;;;7371024;19;20026;-64
2023/02/01 02:37:00;;;;;;;23.25;4.93;;;5.80;99.90;;;;;;7378234;19;20018;-64
2023/02/01 02:40:21;;;;;;;22.63;5.63;;;5.80;99.90;;;;;;7378020;19;20023;-66
2023/02/01 02:48:42;;;;;;;22.88;5.30;;;5.70;99.90;;;;;;7375546;19;20018;-65
2023/02/01 03:05:40;;;;;;;25.02;5.72;;;5.70;99.90;;;;;;7377506;19;20505;-63
2023/02/01 03:08:13;;;;;;;33.10;6.00;;;5.80;99.90;;;;;;7375404;19;20018;-67
2023/02/01 03:10:42;;;;;;;23.25;5.90;;;5.70;99.90;;;;;;7375005;19;20022;-67
2023/02/01 03:13:18;;;;;;;23.13;4.78;;;5.80;99.90;;;;;;7375507;19;20052;-64
2023/02/01 03:16:18;;;;;;;25.77;5.45;;;5.80;99.90;;;;;;7373213;19;20018;-63
2023/02/01 03:18:49;;;;;;;29.45;6.25;;;5.80;99.90;;;;;;7375951;19;20492;-67
2023/02/01 03:21:26;;;;;;;18.35;4.22;;;5.80;99.90;;;;;;7374649;19;20022;-64
2023/02/01 03:23:57;;;;;;;27.13;5.45;;;5.80;99.90;;;;;;7375748;19;20023;-64
2023/02/01 03:26:25;;;;;;;18.92;4.82;;;5.80;99.90;;;;;;7375770;19;20022;-64
2023/02/01 03:29:02;;;;;;;23.65;5.28;;;5.80;99.90;;;;;;7378704;19;20411;-67
2023/02/01 03:31:28;;;;;;;26.63;6.00;;;5.80;99.90;;;;;;7376222;19;20724;-64
2023/02/01 03:33:55;;;;;;;22.90;6.95;;;5.80;99.90;;;;;;7375103;19;20584;-64
2023/02/01 03:36:30;;;;;;;26.25;5.05;;;6.00;99.90;;;;;;7374016;19;20018;-63
2023/02/01 03:39:02;;;;;;;21.88;5.30;;;6.00;99.90;;;;;;7374243;19;20014;-67
2023/02/01 03:41:41;;;;;;;24.20;5.82;;;6.00;99.90;;;;;;7374764;19;20023;-67
2023/02/01 03:44:49;;;;;;;22.63;5.15;;;6.00;99.90;;;;;;7377735;19;20025;-67
2023/02/01 03:47:29;;;;;;;28.92;5.28;;;6.00;99.90;;;;;;7375111;19;20014;-67
2023/02/01 03:50:04;;;;;;;20.75;4.90;;;6.00;99.90;;;;;;7376821;19;20021;-67
2023/02/01 03:52:39;;;;;;;27.25;5.70;;;6.00;99.90;;;;;;7371357;19;20057;-67
2023/02/01 03:55:08;;;;;;;22.58;4.93;;;6.00;99.90;;;;;;7376459;19;20014;-63
2023/02/01 03:57:41;;;;;;;26.58;4.93;;;6.00;99.90;;;;;;7377852;19;20018;-63
2023/02/01 04:00:21;;;;;;;23.83;5.93;;;6.00;99.90;;;;;;7378306;19;20094;-66
2023/02/01 04:02:51;;;;;;;19.30;4.97;;;6.10;99.90;;;;;;7377100;19;20018;-66
2023/02/01 04:05:18;;;;;;;24.52;5.50;;;6.00;99.90;;;;;;7374503;19;20510;-66
2023/02/01 04:07:56;;;;;;;28.35;6.20;;;6.00;99.90;;;;;;7377235;19;20027;-63
2023/02/01 04:10:24;;;;;;;26.10;6.03;;;6.00;99.90;;;;;;7376906;19;20031;-63
2023/02/01 04:12:51;;;;;;;30.75;5.95;;;6.00;99.90;;;;;;7374294;19;20046;-63
2023/02/01 04:15:19;;;;;;;27.48;6.22;;;6.00;99.90;;;;;;7378855;19;20021;-64
2023/02/01 04:17:45;;;;;;;29.85;5.88;;;6.00;99.90;;;;;;7378171;19;20020;-66
2023/02/01 04:20:13;;;;;;;27.42;5.60;;;6.00;99.90;;;;;;7376681;19;20497;-64
2023/02/01 04:22:39;;;;;;;22.33;5.15;;;6.00;99.90;;;;;;7376010;19;20022;-67
2023/02/01 04:25:07;;;;;;;29.23;5.20;;;5.90;99.90;;;;;;7375300;19;20018;-63
2023/02/01 04:27:34;;;;;;;24.33;6.18;;;5.90;99.90;;;;;;7373450;19;20022;-66
2023/02/01 04:30:02;;;;;;;20.25;5.43;;;6.00;99.90;;;;;;7375346;19;20022;-67
2023/02/01 04:32:29;;;;;;;23.23;5.57;;;6.00;99.90;;;;;;7375087;19;20018;-65
2023/02/01 04:34:55;;;;;;;30.33;5.72;;;6.00;99.90;;;;;;7368702;19;20019;-67
2023/02/01 04:37:21;;;;;;;21.20;4.75;;;6.00;99.90;;;;;;7375116;19;20043;-64
2023/02/01 04:39:48;;;;;;;26.67;5.78;;;6.00;99.90;;;;;;7378446;19;20518;-64
2023/02/01 04:42:14;;;;;;;27.25;6.28;;;5.90;99.90;;;;;;7374039;19;20014;-66
2023/02/01 04:44:41;;;;;;;32.70;6.30;;;5.90;99.90;;;;;;7376492;19;20046;-64
2023/02/01 04:47:10;;;;;;;29.02;5.60;;;5.90;99.90;;;;;;7374492;19;20014;-63
2023/02/01 04:49:39;;;;;;;22.15;4.85;;;6.00;99.90;;;;;;7373225;19;20018;-64
2023/02/01 04:52:05;;;;;;;23.55;5.60;;;6.00;99.90;;;;;;7375050;19;20028;-67
2023/02/01 04:54:32;;;;;;;27.45;6.03;;;6.10;99.90;;;;;;7374089;19;20015;-64
2023/02/01 04:56:58;;;;;;;30.52;5.82;;;6.10;99.90;;;;;;7372364;19;20903;-67
2023/02/01 04:59:25;;;;;;;21.42;5.20;;;6.10;99.90;;;;;;7375052;19;20035;-64
2023/02/01 05:01:52;;;;;;;21.65;5.38;;;6.00;99.90;;;;;;7374455;19;20014;-67
2023/02/01 05:04:18;;;;;;;26.05;5.60;;;6.20;99.90;;;;;;7372666;19;20015;-64
2023/02/01 05:06:45;;;;;;;19.23;4.43;;;6.20;99.90;;;;;;7375766;19;20018;-69
2023/02/01 05:09:11;;;;;;;26.42;5.38;;;6.10;99.90;;;;;;7373138;19;20564;-67
2023/02/01 05:14:24;;;;;;;28.60;5.47;;;6.00;99.90;;;;;;7372497;19;20015;-65
2023/02/01 05:16:53;;;;;;;19.02;5.20;;;6.00;99.90;;;;;;7376394;19;20033;-64
2023/02/01 05:19:20;;;;;;;22.92;5.30;;;5.90;99.90;;;;;;7372890;19;20077;-64
2023/02/01 05:21:48;;;;;;;30.00;6.20;;;6.00;99.90;;;;;;7373477;19;20045;-63
2023/02/01 05:24:19;;;;;;;24.70;5.25;;;6.10;99.90;;;;;;7368727;19;20028;-63
2023/02/01 05:26:47;;;;;;;18.05;5.10;;;6.10;99.90;;;;;;7369056;19;20019;-66
2023/02/01 05:29:15;;;;;;;17.60;5.38;;;6.20;99.90;;;;;;7365576;19;20045;-62
2023/02/01 05:31:43;;;;;;;25.15;5.47;;;6.20;99.90;;;;;;7366087;19;20652;-63
2023/02/01 05:34:11;;;;;;;29.75;6.15;;;6.20;99.90;;;;;;7365164;19;20018;-63
2023/02/01 05:36:37;;;;;;;28.38;5.60;;;6.20;99.90;;;;;;7371006;19;20018;-63
2023/02/01 05:39:04;;;;;;;20.00;4.82;;;6.30;99.90;;;;;;7370259;19;20014;-63
2023/02/01 05:41:30;;;;;;;22.40;4.55;;;6.30;99.90;;;;;;7373385;19;20367;-63
2023/02/01 05:43:56;;;;;;;23.20;5.10;;;6.30;99.90;;;;;;7371423;19;20514;-63
2023/02/01 05:46:23;;;;;;;23.42;5.07;;;6.40;99.90;;;;;;7373458;19;21490;-64
2023/02/01 05:48:49;;;;;;;18.77;4.57;;;6.50;99.90;;;;;;7373991;19;20011;-67
2023/02/01 05:51:16;;;;;;;20.13;4.47;;;6.50;99.90;;;;;;7374088;19;20019;-68
2023/02/01 05:53:45;;;;;;;21.55;4.82;;;6.50;99.90;;;;;;7370873;19;20554;-64
2023/02/01 05:56:12;;;;;;;22.08;5.25;;;6.50;99.90;;;;;;7375790;19;20014;-64
2023/02/01 05:58:38;;;;;;;25.92;4.68;;;6.50;99.90;;;;;;7375239;19;20442;-64
2023/02/01 06:01:05;;;;;;;19.23;4.95;;;6.50;99.90;;;;;;7365931;19;20061;-64
2023/02/01 06:03:31;;;;;;;23.88;4.90;;;6.50;99.90;;;;;;7373882;19;20495;-63
2023/02/01 06:06:00;;;;;;;25.15;4.32;;;6.60;99.90;;;;;;7371654;19;20039;-64
2023/02/01 06:08:35;;;;;;;19.40;5.25;;;6.50;99.90;;;;;;7378316;19;20031;-66
2023/02/01 06:11:04;;;;;;;20.50;4.70;;;6.60;99.90;;;;;;7371040;19;20042;-62
2023/02/01 06:13:30;;;;;;;21.85;5.25;;;6.50;99.90;;;;;;7373642;19;20018;-68
2023/02/01 06:15:57;;;;;;;20.10;4.45;;;6.60;99.90;;;;;;7375152;19;20923;-62
2023/02/01 06:18:25;;;;;;;18.02;4.72;;;6.60;99.90;;;;;;7372617;19;20378;-64
2023/02/01 06:20:54;;;;;;;24.70;5.32;;;6.60;99.90;;;;;;7375581;19;20530;-64
2023/02/01 06:23:30;;;;;;;20.88;5.68;;;6.60;99.90;;;;;;7377390;19;20040;-66
2023/02/01 06:26:04;;;;;;;23.02;5.20;;;6.50;99.90;;;;;;7376268;19;20887;-66
2023/02/01 06:28:32;;;;;;;20.15;4.75;;;6.60;99.90;;;;;;7374926;19;20082;-66
2023/02/01 06:31:06;;;;;;;20.38;5.50;;;6.50;99.90;;;;;;7372582;19;20022;-69
2023/02/01 06:33:36;;;;;;;21.17;4.88;;;6.50;99.90;;;;;;7371038;19;20483;-67
2023/02/01 06:36:06;;;;;;;24.38;5.07;;;6.50;99.90;;;;;;7372763;19;20022;-66
2023/02/01 06:38:44;;;;;;;19.75;4.55;;;6.50;99.90;;;;;;7374206;19;20032;-66
2023/02/01 06:41:10;;;;;;;21.38;4.95;;;6.50;99.90;;;;;;7372048;19;20527;-68
2023/02/01 06:43:40;;;;;;;21.15;4.68;;;6.50;99.90;;;;;;7374218;19;20018;-66
2023/02/01 06:46:12;;;;;;;19.30;4.63;;;6.50;99.90;;;;;;7368865;19;20043;-66
2023/02/01 06:48:46;;;;;;;21.98;5.30;;;6.50;99.90;;;;;;7370500;19;20018;-70
2023/02/01 06:51:23;;;;;;;20.38;4.90;;;6.60;99.90;;;;;;7370279;19;20038;-68
2023/02/01 06:53:50;;;;;;;21.77;5.10;;;6.60;99.90;;;;;;7371600;19;20014;-68
2023/02/01 06:56:17;;;;;;;17.70;4.78;;;6.50;99.90;;;;;;7372674;19;20125;-67
2023/02/01 06:58:44;;;;;;;20.90;5.38;;;6.50;99.90;;;;;;7371548;19;20026;-68
2023/02/01 07:01:11;;;;;;;18.65;4.72;;;6.50;99.90;;;;;;7368884;19;20026;-67
2023/02/01 07:03:38;;;;;;;25.35;6.00;;;6.60;99.90;;;;;;7374172;19;20089;-70
2023/02/01 07:06:06;;;;;;;24.10;5.53;;;6.60;99.90;;;;;;7371292;19;20019;-64
2023/02/01 07:08:35;;;;;;;24.13;5.65;;;6.60;99.90;;;;;;7371683;19;20051;-62
2023/02/01 07:11:06;;;;;;;22.27;5.10;;;6.60;99.90;;;;;;7367787;19;20019;-65
2023/02/01 07:13:33;;;;;;;24.50;4.68;;;6.60;99.90;;;;;;7364144;19;20493;-65
2023/02/01 07:16:20;;;;;;;23.95;5.05;;;6.60;99.90;;;;;;7370008;19;20022;-65
2023/02/01 07:19:07;;;;;;;21.85;5.43;;;6.60;99.90;;;;;;7368078;19;20022;-65
2023/02/01 07:21:33;;;;;;;20.65;5.93;;;6.60;99.90;;;;;;7365045;19;20906;-65
2023/02/01 07:24:00;;;;;;;24.63;5.35;;;6.60;99.90;;;;;;7371623;19;20098;-65
2023/02/01 07:26:27;;;;;;;25.52;5.40;;;6.60;99.90;;;;;;7372025;19;20018;-65
2023/02/01 07:28:53;;;;;;;27.55;6.65;;;6.60;99.90;;;;;;7370610;19;20022;-66
2023/02/01 07:31:21;;;;;;;20.55;4.85;;;6.70;99.90;;;;;;7368526;19;20043;-64
2023/02/01 07:33:51;;;;;;;23.80;5.70;;;6.70;99.90;;;;;;7368875;19;20563;-64
2023/02/01 07:36:18;;;;;;;22.65;5.25;;;6.60;99.90;;;;;;7373003;19;20030;-64
2023/02/01 07:38:49;;;;;;;24.35;5.28;;;6.60;99.90;;;;;;7368328;19;20423;-65
2023/02/01 07:41:16;;;;;;;22.95;5.97;;;6.60;99.90;;;;;;7370359;19;20029;-64
2023/02/01 07:43:42;;;;;;;23.52;5.00;;;6.60;99.90;;;;;;7372282;19;20018;-64
2023/02/01 07:46:10;;;;;;;21.67;4.57;;;6.70;99.90;;;;;;7367689;19;20434;-65
2023/02/01 07:48:37;;;;;;;20.30;4.55;;;6.60;99.90;;;;;;7367491;19;20018;-65
2023/02/01 07:51:10;;;;;;;24.50;5.00;;;6.70;99.90;;;;;;7365268;19;20513;-67
2023/02/01 07:53:37;;;;;;;22.00;4.50;;;6.70;99.90;;;;;;7366450;19;20015;-66
2023/02/01 07:56:09;;;;;;;17.65;5.03;;;6.60;99.90;;;;;;7366880;19;20493;-65
2023/02/01 07:58:35;;;;;;;17.50;4.50;;;6.60;99.90;;;;;;7372182;19;20014;-66
2023/02/01 08:01:20;;;;;;;22.67;4.63;;;6.60;99.90;;;;;;7367831;19;20014;-71
2023/02/01 08:03:48;;;;;;;20.85;4.75;;;6.60;99.90;;;;;;7368259;19;20485;-66
2023/02/01 08:06:15;;;;;;;18.08;4.82;;;6.60;99.90;;;;;;7367456;19;20078;-64
2023/02/01 08:08:44;;;;;;;28.20;5.60;;;6.60;99.90;;;;;;7367893;19;20035;-66
2023/02/01 08:11:11;;;;;;;22.65;4.70;;;6.50;99.90;;;;;;7362844;19;20041;-66
2023/02/01 08:13:37;;;;;;;24.85;5.53;;;6.50;99.90;;;;;;7367641;19;20563;-70
2023/02/01 08:16:06;;;;;;;18.58;4.68;;;6.50;99.90;;;;;;7368498;19;20441;-63
2023/02/01 08:18:34;;;;;;;19.88;4.05;;;6.50;99.90;;;;;;7366491;19;20411;-66
2023/02/01 08:21:19;;;;;;;21.02;4.75;;;6.50;99.90;;;;;;7369237;19;20014;-62
2023/02/01 08:23:46;;;;;;;21.33;4.60;;;6.50;99.90;;;;;;7368648;19;20014;-67
2023/02/01 08:26:20;;;;;;;23.67;5.18;;;6.60;99.90;;;;;;7368927;19;20968;-67
2023/02/01 08:28:56;;;;;;;19.75;4.57;;;6.60;99.90;;;;;;7367243;19;20019;-66
2023/02/01 08:31:24;;;;;;;23.23;5.05;;;6.60;99.90;;;;;;7369200;19;20310;-66
2023/02/01 08:33:53;;;;;;;24.27;4.95;;;6.60;99.90;;;;;;7364806;19;20031;-67
2023/02/01 08:36:21;;;;;;;15.52;4.85;;;6.60;99.90;;;;;;7371492;19;20098;-68
2023/02/01 08:38:47;;;;;;;21.63;5.50;;;6.60;99.90;;;;;;7364293;19;20011;-66
2023/02/01 08:41:20;;;;;;;20.27;4.57;;;6.60;99.90;;;;;;7368878;19;20019;-67
2023/02/01 08:43:47;;;;;;;24.52;5.50;;;6.60;99.90;;;;;;7366957;19;20035;-63
2023/02/01 08:46:17;;;;;;;26.75;5.43;;;6.70;99.90;;;;;;7369048;19;20066;-66
2023/02/01 08:48:49;;;;;;;17.77;4.15;;;6.70;99.90;;;;;;7368383;19;21187;-62
2023/02/01 08:51:18;;;;;;;26.70;6.07;;;6.70;99.90;;;;;;7370324;19;20024;-66
2023/02/01 08:53:45;;;;;;;25.83;4.57;;;6.70;99.90;;;;;;7370393;19;20018;-61
2023/02/01 08:56:13;;;;;;;22.25;5.43;;;6.70;99.90;;;;;;7368100;19;20035;-62
2023/02/01 08:58:42;;;;;;;26.02;6.43;;;6.80;99.90;;;;;;7371026;19;20609;-63
2023/02/01 09:01:14;;;;;;;24.33;5.32;;;6.80;99.90;;;;;;7371176;19;20025;-61
2023/02/01 09:03:41;;;;;;;20.65;5.97;;;6.80;99.90;;;;;;7369015;19;20444;-63
2023/02/01 09:06:11;;;;;;;23.20;5.63;;;6.90;99.90;;;;;;7367597;19;20486;-62
2023/02/01 09:08:40;;;;;;;17.23;5.13;;;6.90;99.90;;;;;;7362699;19;20018;-61
2023/02/01 09:11:10;;;;;;;25.92;5.90;;;6.90;99.90;;;;;;7370480;19;20806;-62
2023/02/01 09:13:38;;;;;;;20.25;5.00;;;6.90;99.90;;;;;;7365609;19;20382;-61
2023/02/01 09:16:04;;;;;;;21.48;5.15;;;6.90;99.90;;;;;;7368183;19;20809;-62
2023/02/01 09:18:31;;;;;;;20.13;4.85;;;7.00;99.90;;;;;;7368656;19;20383;-60
2023/02/01 09:20:57;;;;;;;24.42;5.65;;;6.90;99.90;;;;;;7367375;19;20904;-61
2023/02/01 09:23:24;;;;;;;27.13;5.10;;;6.90;99.90;;;;;;7362260;19;20698;-63
2023/02/01 09:25:53;;;;;;;19.35;4.72;;;6.90;99.90;;;;;;7365720;19;20018;-60
2023/02/01 09:28:20;;;;;;;26.00;5.10;;;6.90;99.90;;;;;;7363089;19;20025;-61
2023/02/01 09:30:47;;;;;;;23.00;5.78;;;6.90;99.90;;;;;;7367579;19;20052;-60
2023/02/01 09:33:13;;;;;;;17.83;4.65;;;6.90;99.90;;;;;;7366041;19;20022;-58
2023/02/01 09:35:39;;;;;;;24.88;4.88;;;6.90;99.90;;;;;;7373065;19;20038;-64
2023/02/01 09:38:05;;;;;;;24.13;5.20;;;6.90;99.90;;;;;;7363383;19;20022;-60
2023/02/01 09:40:35;;;;;;;23.83;4.60;;;6.90;99.90;;;;;;7362492;19;20029;-59
2023/02/01 09:43:24;;;;;;;21.52;4.22;;;6.90;99.90;;;;;;7364589;19;20042;-64
2023/02/01 09:46:06;;;;;;;18.15;4.70;;;6.90;99.90;;;;;;7366184;19;20058;-63
2023/02/01 09:48:37;;;;;;;17.70;4.65;;;6.90;99.90;;;;;;7360182;19;20369;-63
2023/02/01 09:51:09;;;;;;;22.08;4.60;;;6.90;99.90;;;;;;7368831;19;20096;-64
2023/02/01 09:53:40;;;;;;;22.80;4.35;;;6.90;99.90;;;;;;7364602;19;20057;-63
2023/02/01 09:56:22;;;;;;;26.42;5.38;;;6.90;99.90;;;;;;7366756;19;20014;-63
2023/02/01 09:59:08;;;;;;;15.70;4.30;;;6.90;99.90;;;;;;7363420;19;20025;-64
2023/02/01 10:01:35;;;;;;;19.73;5.32;;;6.90;99.90;;;;;;7363152;19;20019;-63
2023/02/01 10:04:08;;;;;;;26.30;4.70;;;6.80;99.90;;;;;;7365010;19;20019;-63
2023/02/01 10:06:37;;;;;;;22.73;5.38;;;6.60;99.90;;;;;;7363621;19;20420;-63
2023/02/01 10:09:12;;;;;;;24.48;4.50;;;6.50;99.90;;;;;;7363419;19;20560;-64
2023/02/01 10:12:16;;;;;;;18.63;4.93;;;6.40;99.90;;;;;;7363744;19;20031;-64
2023/02/01 10:14:51;;;;;;;22.30;4.32;;;6.40;99.90;;;;;;7359770;19;20022;-65
2023/02/01 10:17:24;;;;;;;27.15;5.32;;;6.30;99.90;;;;;;7365037;19;20029;-64
2023/02/01 10:20:08;;;;;;;26.23;5.78;;;6.30;99.90;;;;;;7360502;19;20576;-65
2023/02/01 10:22:40;;;;;;;25.73;5.32;;;6.20;99.90;;;;;;7361829;19;20043;-62
2023/02/01 10:25:14;;;;;;;24.08;4.90;;;6.20;99.90;;;;;;7361077;19;20042;-60
2023/02/01 10:28:16;;;;;;;19.92;4.68;;;6.20;99.90;;;;;;7367933;19;20109;-87
2023/02/01 10:31:01;;;;;;;28.98;6.28;;;6.20;99.90;;;;;;7377227;19;20021;-86
2023/02/01 10:33:41;;;;;;;23.02;4.15;;;6.20;99.90;;;;;;7370935;19;20017;-84
2023/02/01 10:36:31;;;;;;;25.85;5.20;;;6.30;99.90;;;;;;7374243;19;20014;-89
2023/02/01 10:43:02;;;;;;;53.80;18.50;;;6.30;99.90;;;;;;7380360;19;19995;-89
2023/02/01 10:46:12;;;;;;;18.92;4.50;;;6.60;99.90;;;;;;7400115;19;20520;-88
2023/02/01 10:48:48;;;;;;;26.20;4.35;;;6.30;99.90;;;;;;7389594;19;20015;-88
2023/02/01 10:51:23;;;;;;;50.58;21.60;;;6.30;99.90;;;;;;7383269;19;20140;-83
2023/02/01 10:54:15;;;;;;;80.82;19.02;;;6.50;99.90;;;;;;7381719;19;20058;-85
2023/02/01 10:56:53;;;;;;;858.17;122.55;;;7.00;99.90;;;;;;7374651;19;20022;-88
2023/02/01 10:59:39;;;;;;;16.92;4.38;;;6.80;99.90;;;;;;7377752;19;20019;-91
2023/02/01 11:02:35;;;;;;;25.05;6.18;;;6.50;99.90;;;;;;7370241;19;20129;-86
2023/02/01 11:05:18;;;;;;;22.88;4.50;;;6.50;99.90;;;;;;7368030;19;20100;-85
2023/02/01 11:07:55;;;;;;;18.58;3.85;;;6.50;99.90;;;;;;7369316;19;20659;-85
2023/02/01 11:10:38;;;;;;;20.55;5.50;;;6.50;99.90;;;;;;7371505;19;20654;-84
2023/02/01 11:13:21;;;;;;;27.45;5.65;;;6.40;99.90;;;;;;7366625;19;20039;-83
2023/02/01 11:15:59;;;;;;;19.38;4.75;;;6.40;99.90;;;;;;7368774;19;20023;-84
2023/02/01 11:18:37;;;;;;;25.67;5.30;;;6.40;99.90;;;;;;7369316;19;20018;-84
2023/02/01 11:21:10;;;;;;;22.75;4.82;;;6.40;99.90;;;;;;7368120;19;20022;-84
2023/02/01 11:23:45;;;;;;;25.98;4.82;;;6.50;99.90;;;;;;7367401;19;20022;-84
2023/02/01 11:26:24;;;;;;;19.50;4.45;;;6.50;99.90;;;;;;7368994;19;20137;-84
2023/02/01 11:29:02;;;;;;;20.17;5.10;;;6.60;99.90;;;;;;7365654;19;20038;-84
2023/02/01 11:31:33;;;;;;;24.08;5.78;;;6.60;99.90;;;;;;7369150;19;20018;-83
2023/02/01 11:34:16;;;;;;;17.10;4.47;;;6.70;99.90;;;;;;7366851;19;20015;-83
2023/02/01 11:37:03;;;;;;;24.35;5.18;;;6.70;99.90;;;;;;7367003;19;20018;-85
2023/02/01 11:39:41;;;;;;;20.92;4.28;;;6.60;99.90;;;;;;7367224;19;20018;-86
2023/02/01 11:42:21;;;;;;;20.77;5.00;;;6.60;99.90;;;;;;7369388;19;20018;-85
2023/02/01 11:45:07;;;;;;;25.60;5.75;;;6.60;99.90;;;;;;7368897;19;20387;-84
2023/02/01 11:47:57;;;;;;;18.75;5.00;;;6.50;99.90;;;;;;7365236;19;20010;-85
2023/02/01 11:51:00;;;;;;;23.05;5.40;;;6.60;99.90;;;;;;7368137;19;20022;-85
2023/02/01 11:53:30;;;;;;;24.02;5.40;;;6.50;99.90;;;;;;7367709;19;20646;-85
2023/02/01 11:56:35;;;;;;;21.38;4.90;;;6.50;99.90;;;;;;7368418;19;20033;-85
2023/02/01 11:59:23;;;;;;;25.65;5.63;;;6.60;99.90;;;;;;7367712;19;20019;-85
2023/02/01 12:02:15;;;;;;;27.83;6.57;;;6.60;99.90;;;;;;7365158;19;20026;-84
2023/02/01 12:05:19;;;;;;;24.17;4.75;;;6.60;99.90;;;;;;7365250;19;20036;-84
2023/02/01 12:07:46;;;;;;;21.90;4.70;;;6.70;99.90;;;;;;7368102;19;20024;-83
2023/02/01 12:10:15;;;;;;;21.33;5.05;;;6.70;99.90;;;;;;7369633;19;20022;-83
2023/02/01 12:13:03;;;;;;;20.75;4.10;;;6.70;99.90;;;;;;7369838;19;20022;-84
2023/02/01 12:15:48;;;;;;;23.80;5.40;;;6.60;99.90;;;;;;7369126;19;20483;-84
2023/02/01 12:18:30;;;;;;;30.15;5.43;;;6.60;99.90;;;;;;7369525;19;20115;-84
2023/02/01 12:21:25;;;;;;;20.02;4.82;;;6.50;99.90;;;;;;7368448;19;20402;-83
2023/02/01 12:24:39;;;;;;;27.40;5.50;;;6.60;99.90;;;;;;7367724;19;20025;-83
2023/02/01 12:27:25;;;;;;;34.40;5.57;;;6.70;99.90;;;;;;7371244;19;20022;-83
2023/02/01 12:30:10;;;;;;;33.55;6.90;;;6.70;99.90;;;;;;7367521;19;20019;-84
2023/02/01 12:33:07;;;;;;;19.15;4.95;;;6.80;99.90;;;;;;7368452;19;20375;-84
2023/02/01 12:35:56;;;;;;;24.67;5.47;;;7.00;99.90;;;;;;7367421;19;20033;-84
2023/02/01 12:38:38;;;;;;;22.30;6.72;;;7.30;99.90;;;;;;7369202;19;20014;-84
2023/02/01 12:41:50;;;;;;;19.65;4.57;;;7.30;99.90;;;;;;7369445;19;20545;-84
2023/02/01 12:44:43;;;;;;;28.20;5.43;;;7.30;99.90;;;;;;7369544;19;20042;-84
2023/02/01 12:47:34;;;;;;;26.73;5.30;;;7.40;99.90;;;;;;7363184;19;20022;-82
2023/02/01 12:50:18;;;;;;;25.67;5.50;;;7.50;99.90;;;;;;7366025;19;20018;-83
2023/02/01 12:52:46;;;;;;;21.35;5.78;;;7.60;99.90;;;;;;7365975;19;21214;-82
2023/02/01 12:55:32;;;;;;;23.38;5.88;;;7.70;99.90;;;;;;7363625;19;20402;-83
2023/02/01 12:58:35;;;;;;;29.35;6.20;;;7.70;99.90;;;;;;7368339;19;20163;-84
2023/02/01 13:01:27;;;;;;;28.90;5.78;;;8.10;99.90;;;;;;7369398;19;20022;-82
2023/02/01 13:04:11;;;;;;;28.33;4.45;;;7.90;99.90;;;;;;7366445;19;20015;-84
2023/02/01 13:06:55;;;;;;;25.77;5.25;;;7.80;99.90;;;;;;7365531;19;20380;-83
2023/02/01 13:09:30;;;;;;;24.80;5.50;;;8.10;99.90;;;;;;7368215;19;20025;-83
2023/02/01 13:12:07;;;;;;;22.70;5.22;;;8.40;99.90;;;;;;7368375;19;20122;-83
2023/02/01 13:14:52;;;;;;;25.15;6.13;;;8.30;99.90;;;;;;7363903;19;20045;-83
2023/02/01 13:17:24;;;;;;;24.52;5.90;;;8.30;99.90;;;;;;7366251;19;20410;-83
2023/02/01 13:19:54;;;;;;;;;;;8.10;99.90;;;;;;7368659;19;20045;-83
2023/02/01 13:22:36;;;;;;;29.92;5.50;;;7.90;99.90;;;;;;7368878;19;19934;-85
2023/02/01 13:25:16;;;;;;;28.88;5.40;;;7.80;99.90;;;;;;7367900;19;20026;-83
2023/02/01 13:27:48;;;;;;;26.30;5.15;;;7.70;99.90;;;;;;7366859;19;20023;-83
2023/02/01 13:30:58;;;;;;;26.52;5.32;;;7.70;99.90;;;;;;7365931;19;20056;-83
2023/02/01 13:33:44;;;;;;;28.48;6.20;;;7.60;99.90;;;;;;7366603;19;20018;-83
2023/02/01 13:36:41;;;;;;;26.80;5.47;;;7.60;99.90;;;;;;7359362;19;20026;-83
2023/02/01 13:39:27;;;;;;;26.25;6.47;;;7.60;99.90;;;;;;7362171;19;20470;-83
2023/02/01 13:42:04;;;;;;;24.05;5.00;;;7.60;99.90;;;;;;7362844;19;20106;-83
2023/02/01 13:44:59;;;;;;;27.30;5.40;;;7.70;99.90;;;;;;7365572;19;20025;-83
2023/02/01 13:47:31;;;;;;;26.73;4.90;;;7.70;99.90;;;;;;7360405;19;20489;-83
2023/02/01 13:50:23;;;;;;;19.45;5.00;;;7.70;99.90;;;;;;7369638;19;20037;-83
2023/02/01 13:53:13;;;;;;;21.15;4.90;;;7.80;99.90;;;;;;7364821;19;20022;-83